createdAt,value
2018-07-21T00:00:04.489Z,1.80
2018-07-21T00:02:40.714Z,1.85
2018-07-21T00:05:11.143Z,1.80
2018-07-21T00:10:39.933Z,1.70
2018-07-21T00:13:13.394Z,1.80
2018-07-21T00:15:44.095Z,1.80
2018-07-21T00:18:14.449Z,1.80
2018-07-21T00:20:46.314Z,1.80
2018-07-21T00:23:15.869Z,1.80
2018-07-21T00:28:35.452Z,1.75
2018-07-21T00:31:13.313Z,1.50
2018-07-21T00:34:06.229Z,2.02
2018-07-21T00:36:39.003Z,1.80
2018-07-21T00:39:17.343Z,2.00
2018-07-21T00:41:49.463Z,1.90
2018-07-21T00:44:20.665Z,1.93
2018-07-21T00:46:50.593Z,2.23
2018-07-21T00:49:20.166Z,2.10
2018-07-21T00:51:52.243Z,2.00
2018-07-21T00:54:36.466Z,2.30
2018-07-21T00:57:11.621Z,2.27
2018-07-21T00:59:55.998Z,2.20
2018-07-21T01:02:29.498Z,2.20
2018-07-21T01:05:01.472Z,2.50
2018-07-21T01:07:31.193Z,2.30
2018-07-21T01:10:09.483Z,2.30
2018-07-21T01:12:48.354Z,2.40
2018-07-21T01:15:39.158Z,2.60
2018-07-21T01:18:15.918Z,2.80
2018-07-21T01:20:51.787Z,2.55
2018-07-21T01:23:38.072Z,2.50
2018-07-21T01:26:37.906Z,2.50
2018-07-21T01:29:14.418Z,2.22
2018-07-21T01:32:01.171Z,2.15
2018-07-21T01:34:31.368Z,2.25
2018-07-21T01:39:47.714Z,2.17
2018-07-21T01:42:17.332Z,2.30
2018-07-21T01:44:47.155Z,2.10
2018-07-21T01:47:19.171Z,2.17
2018-07-21T01:50:04.785Z,2.00
2018-07-21T01:55:47.229Z,2.10
2018-07-21T01:58:17.319Z,1.98
2018-07-21T02:00:51.352Z,1.90
2018-07-21T02:03:38.519Z,2.12
2018-07-21T02:06:12.226Z,2.00
2018-07-21T02:08:51.915Z,2.00
2018-07-21T02:11:42.063Z,2.00
2018-07-21T02:14:23.391Z,1.80
2018-07-21T02:16:54.029Z,1.85
2018-07-21T02:19:33.703Z,2.00
2018-07-21T02:22:07.169Z,1.87
2018-07-21T02:24:37.608Z,1.80
2018-07-21T02:27:11.336Z,1.77
2018-07-21T02:29:41.731Z,1.80
2018-07-21T02:32:13.144Z,1.90
2018-07-21T02:34:46.876Z,1.80
2018-07-21T02:37:17.486Z,1.55
2018-07-21T02:40:52.055Z,1.85
2018-07-21T02:43:21.707Z,1.87
2018-07-21T02:45:51.409Z,1.70
2018-07-21T02:48:21.475Z,2.10
2018-07-21T02:50:53.815Z,1.75
2018-07-21T02:53:43.624Z,1.60
2018-07-21T02:56:29.595Z,1.90
2018-07-21T02:59:10.111Z,2.00
2018-07-21T03:01:47.333Z,2.07
2018-07-21T03:04:18.906Z,2.07
2018-07-21T03:06:50.628Z,2.20
2018-07-21T03:09:22.656Z,2.10
2018-07-21T03:11:53.124Z,2.20
2018-07-21T03:14:24.219Z,2.10
2018-07-21T03:16:54.716Z,1.95
2018-07-21T03:19:25.076Z,2.30
2018-07-21T03:21:54.781Z,2.50
2018-07-21T03:24:25.728Z,2.20
2018-07-21T03:27:14.400Z,2.22
2018-07-21T03:33:07.981Z,2.27
2018-07-21T03:35:47.138Z,2.33
2018-07-21T03:38:17.368Z,2.40
2018-07-21T03:40:47.897Z,2.00
2018-07-21T03:43:32.829Z,2.25
2018-07-21T03:46:10.328Z,2.27
2018-07-21T03:51:33.925Z,2.20
2018-07-21T03:54:10.080Z,2.45
2018-07-21T03:56:47.219Z,2.50
2018-07-21T03:59:17.128Z,2.55
2018-07-21T04:01:55.299Z,2.60
2018-07-21T04:04:29.961Z,2.27
2018-07-21T04:07:10.435Z,2.97
2018-07-21T04:09:42.793Z,2.70
2018-07-21T04:15:22.478Z,2.62
2018-07-21T04:17:52.306Z,2.42
2018-07-21T04:20:24.207Z,2.60
2018-07-21T04:23:17.649Z,2.60
2018-07-21T04:25:49.616Z,2.30
2018-07-21T04:28:40.636Z,2.47
2018-07-21T04:35:33.259Z,2.20
2018-07-21T04:38:17.498Z,2.10
2018-07-21T04:43:36.428Z,2.40
2018-07-21T04:46:13.546Z,2.30
2018-07-21T04:49:09.739Z,2.30
2018-07-21T04:54:35.672Z,2.30
2018-07-21T04:57:28.320Z,2.27
2018-07-21T04:59:59.362Z,2.30
2018-07-21T05:02:30.033Z,2.50
2018-07-21T05:05:10.938Z,2.10
2018-07-21T05:07:41.299Z,2.45
2018-07-21T05:10:11.852Z,2.43
2018-07-21T05:12:45.606Z,2.70
2018-07-21T05:15:19.474Z,2.77
2018-07-21T05:17:52.169Z,2.70
2018-07-21T05:20:23.688Z,2.77
2018-07-21T05:23:06.239Z,2.60
2018-07-21T05:25:40.714Z,2.80
2018-07-21T05:28:15.901Z,3.40
2018-07-21T05:33:30.242Z,3.12
2018-07-21T05:36:00.860Z,3.57
2018-07-21T05:38:36.087Z,3.17
2018-07-21T05:41:10.855Z,3.60
2018-07-21T05:43:46.194Z,3.47
2018-07-21T05:46:17.220Z,3.20
2018-07-21T05:48:46.937Z,3.70
2018-07-21T05:51:17.125Z,3.50
2018-07-21T05:54:07.778Z,3.60
2018-07-21T05:56:43.101Z,3.27
2018-07-21T05:59:27.947Z,3.50
2018-07-21T06:04:41.397Z,3.83
2018-07-21T06:07:18.289Z,3.58
2018-07-21T06:09:51.807Z,3.42
2018-07-21T06:12:21.421Z,3.83
2018-07-21T06:14:51.111Z,3.80
2018-07-21T06:17:25.866Z,4.10
2018-07-21T06:19:58.200Z,4.08
2018-07-21T06:22:34.080Z,4.15
2018-07-21T06:25:12.435Z,4.70
2018-07-21T06:27:47.277Z,4.47
2018-07-21T06:32:59.001Z,5.58
2018-07-21T06:35:33.911Z,4.75
2018-07-21T06:38:04.190Z,4.72
2018-07-21T06:40:34.157Z,4.50
2018-07-21T06:43:04.141Z,4.42
2018-07-21T06:45:38.772Z,4.08
2018-07-21T06:50:50.530Z,4.12
2018-07-21T06:53:21.163Z,4.60
2018-07-21T06:55:50.909Z,4.57
2018-07-21T06:58:20.560Z,4.58
2018-07-21T07:03:36.585Z,4.33
2018-07-21T07:06:09.059Z,4.50
2018-07-21T07:08:42.025Z,4.00
2018-07-21T07:11:12.798Z,3.97
2018-07-21T07:13:43.022Z,3.90
2018-07-21T07:19:11.939Z,3.55
2018-07-21T07:21:42.369Z,3.40
2018-07-21T07:24:31.669Z,3.33
2018-07-21T07:27:18.074Z,3.62
2018-07-21T07:29:49.207Z,3.30
2018-07-21T07:32:20.673Z,4.03
2018-07-21T07:34:52.355Z,3.77
2018-07-21T07:37:25.659Z,3.40
2018-07-21T07:39:55.994Z,3.45
2018-07-21T07:42:27.227Z,3.57
2018-07-21T07:45:08.581Z,3.67
2018-07-21T07:47:40.282Z,3.55
2018-07-21T07:50:12.121Z,3.42
2018-07-21T07:52:42.229Z,3.30
2018-07-21T07:55:16.129Z,3.00
2018-07-21T07:57:45.575Z,3.20
2018-07-21T08:00:20.425Z,3.30
2018-07-21T08:02:49.969Z,3.27
2018-07-21T08:05:22.139Z,3.10
2018-07-21T08:07:57.875Z,2.85
2018-07-21T08:10:39.938Z,3.08
2018-07-21T08:13:12.491Z,2.40
2018-07-21T08:15:57.488Z,2.60
2018-07-21T08:18:27.823Z,2.62
2018-07-21T08:21:17.398Z,2.20
2018-07-21T08:24:00.990Z,2.80
2018-07-21T08:26:34.061Z,2.60
2018-07-21T08:29:04.524Z,2.67
2018-07-21T08:31:34.341Z,2.95
2018-07-21T08:34:12.349Z,2.90
2018-07-21T08:36:47.178Z,2.67
2018-07-21T08:39:17.540Z,2.37
2018-07-21T08:41:48.002Z,2.52
2018-07-21T08:44:17.492Z,2.40
2018-07-21T08:46:55.421Z,2.50
2018-07-21T08:49:32.522Z,2.40
2018-07-21T08:52:02.065Z,2.30
2018-07-21T08:54:40.387Z,2.60
2018-07-21T09:00:13.864Z,2.42
2018-07-21T09:03:00.636Z,2.30
2018-07-21T09:05:47.574Z,2.55
2018-07-21T09:08:16.576Z,2.40
2018-07-21T09:10:45.466Z,2.70
2018-07-21T09:13:14.475Z,2.22
2018-07-21T09:15:43.397Z,2.40
2018-07-21T09:18:12.444Z,2.10
2018-07-21T09:20:41.389Z,2.17
2018-07-21T09:23:10.349Z,2.70
2018-07-21T09:25:39.448Z,2.40
2018-07-21T09:28:08.653Z,2.10
2018-07-21T09:30:37.905Z,1.92
2018-07-21T09:33:07.173Z,1.90
2018-07-21T09:35:36.205Z,2.20
2018-07-21T09:38:05.260Z,1.90
2018-07-21T09:40:34.223Z,2.10
2018-07-21T09:43:03.140Z,2.20
2018-07-21T09:45:32.057Z,1.80
2018-07-21T09:48:00.924Z,1.70
2018-07-21T09:50:29.865Z,1.50
2018-07-21T09:52:58.789Z,1.70
2018-07-21T09:55:27.830Z,1.55
2018-07-21T09:57:56.856Z,1.70
2018-07-21T10:00:30.990Z,2.00
2018-07-21T10:02:59.911Z,2.00
2018-07-21T10:05:28.884Z,1.90
2018-07-21T10:07:57.867Z,1.90
2018-07-21T10:10:26.944Z,1.90
2018-07-21T10:12:55.973Z,1.80
2018-07-21T10:15:24.882Z,1.82
2018-07-21T10:17:53.856Z,1.87
2018-07-21T10:20:22.751Z,1.60
2018-07-21T10:22:51.708Z,1.73
2018-07-21T10:25:25.637Z,1.70
2018-07-21T10:27:59.753Z,1.80
2018-07-21T10:30:28.629Z,1.92
2018-07-21T10:32:57.556Z,1.98
2018-07-21T10:35:26.469Z,1.90
2018-07-21T10:37:55.524Z,2.17
2018-07-21T10:40:24.429Z,2.40
2018-07-21T10:42:53.371Z,2.10
2018-07-21T10:45:22.262Z,1.80
2018-07-21T10:47:51.173Z,1.70
2018-07-21T10:50:20.070Z,2.08
2018-07-21T10:52:48.980Z,2.00
2018-07-21T10:55:17.853Z,1.90
2018-07-21T10:57:46.747Z,1.90
2018-07-21T11:00:15.657Z,1.62
2018-07-21T11:02:44.584Z,2.35
2018-07-21T11:05:13.512Z,2.25
2018-07-21T11:07:42.522Z,2.40
2018-07-21T11:10:11.941Z,2.40
2018-07-21T11:12:41.172Z,2.33
2018-07-21T11:15:10.273Z,2.20
2018-07-21T11:17:39.352Z,2.40
2018-07-21T11:20:08.345Z,2.00
2018-07-21T11:22:37.453Z,1.62
2018-07-21T11:25:07.300Z,1.92
2018-07-21T11:27:36.321Z,1.62
2018-07-21T11:30:06.209Z,1.50
2018-07-21T11:32:35.176Z,2.00
2018-07-21T11:35:04.645Z,1.77
2018-07-21T11:37:33.536Z,1.90
2018-07-21T11:40:02.480Z,2.00
2018-07-21T11:42:31.332Z,2.02
2018-07-21T11:45:00.232Z,1.72
2018-07-21T11:47:29.105Z,1.90
2018-07-21T11:49:58.044Z,1.70
2018-07-21T11:52:26.968Z,1.87
2018-07-21T11:54:55.898Z,1.57
2018-07-21T11:57:24.833Z,1.50
2018-07-21T11:59:53.797Z,1.70
2018-07-21T12:02:22.676Z,1.60
2018-07-21T12:04:51.598Z,1.70
2018-07-21T12:07:20.488Z,1.80
2018-07-21T12:09:49.458Z,1.70
2018-07-21T12:12:18.401Z,1.70
2018-07-21T12:14:47.349Z,1.80
2018-07-21T12:17:16.417Z,1.72
2018-07-21T12:19:45.427Z,1.80
2018-07-21T12:22:14.328Z,1.50
2018-07-21T12:24:43.292Z,1.70
2018-07-21T12:27:12.187Z,1.70
2018-07-21T12:29:41.252Z,1.90
2018-07-21T12:32:10.137Z,2.00
2018-07-21T12:34:39.062Z,1.80
2018-07-21T12:37:07.948Z,1.70
2018-07-21T12:39:36.848Z,1.80
2018-07-21T12:42:05.794Z,1.72
2018-07-21T12:44:34.713Z,1.80
2018-07-21T12:47:03.618Z,1.70
2018-07-21T12:49:32.589Z,1.70
2018-07-21T12:52:01.489Z,1.62
2018-07-21T12:54:30.429Z,1.80
2018-07-21T12:56:59.304Z,1.60
2018-07-21T12:59:28.251Z,1.77
2018-07-21T13:01:57.180Z,1.80
2018-07-21T13:04:26.155Z,1.60
2018-07-21T13:06:55.236Z,1.80
2018-07-21T13:09:24.285Z,1.70
2018-07-21T13:11:53.288Z,1.70
2018-07-21T13:14:22.300Z,1.70
2018-07-21T13:16:51.237Z,1.72
2018-07-21T13:19:20.156Z,1.90
2018-07-21T13:21:49.084Z,1.62
2018-07-21T13:24:17.963Z,1.70
2018-07-21T13:26:46.892Z,1.77
2018-07-21T13:29:15.765Z,1.80
2018-07-21T13:31:44.766Z,1.73
2018-07-21T13:34:13.664Z,1.70
2018-07-21T13:36:42.572Z,1.72
2018-07-21T13:39:12.540Z,1.70
2018-07-21T13:41:41.485Z,1.72
2018-07-21T13:44:10.485Z,1.80
2018-07-21T13:46:39.829Z,1.70
2018-07-21T13:49:09.035Z,2.10
2018-07-21T13:51:38.129Z,1.82
2018-07-21T13:54:07.325Z,1.90
2018-07-21T13:56:36.387Z,1.95
2018-07-21T13:59:05.412Z,1.80
2018-07-21T14:01:34.661Z,1.75
2018-07-21T14:04:03.720Z,1.80
2018-07-21T14:06:32.894Z,1.80
2018-07-21T14:09:01.842Z,1.98
2018-07-21T14:11:30.816Z,1.92
2018-07-21T14:13:59.708Z,1.90
2018-07-21T14:16:28.668Z,1.90
2018-07-21T14:18:57.571Z,1.50
2018-07-21T14:21:26.591Z,1.60
2018-07-21T14:23:55.824Z,1.70
2018-07-21T14:26:24.871Z,1.75
2018-07-21T14:28:53.822Z,1.90
2018-07-21T14:31:22.780Z,1.63
2018-07-21T14:33:51.705Z,1.80
2018-07-21T14:36:20.767Z,1.80
2018-07-21T14:38:49.651Z,1.70
2018-07-21T14:41:18.700Z,1.80
2018-07-21T14:43:47.717Z,1.60
2018-07-21T14:46:16.641Z,1.70
2018-07-21T14:48:45.674Z,1.57
2018-07-21T14:51:14.577Z,1.80
2018-07-21T14:53:43.532Z,1.65
2018-07-21T14:56:12.453Z,1.65
2018-07-21T14:58:41.385Z,1.70
2018-07-21T15:01:14.049Z,1.60
2018-07-21T15:03:43.060Z,1.60
2018-07-21T15:06:12.043Z,1.75
2018-07-21T15:08:41.014Z,1.60
2018-07-21T15:11:09.916Z,1.45
2018-07-21T15:13:38.831Z,1.80
2018-07-21T15:16:07.757Z,1.42
2018-07-21T15:18:36.648Z,1.65
2018-07-21T15:21:05.549Z,1.67
2018-07-21T15:23:34.533Z,1.60
2018-07-21T15:26:03.484Z,1.60
2018-07-21T15:28:32.872Z,1.60
2018-07-21T15:31:01.853Z,1.70
2018-07-21T15:33:30.886Z,1.67
2018-07-21T15:35:59.812Z,1.72
2018-07-21T15:38:28.772Z,1.55
2018-07-21T15:40:57.668Z,1.60
2018-07-21T15:43:26.583Z,1.55
2018-07-21T15:45:55.469Z,1.60
2018-07-21T15:48:24.336Z,1.70
2018-07-21T15:50:53.281Z,1.70
2018-07-21T15:53:22.137Z,1.65
2018-07-21T15:55:51.028Z,1.75
2018-07-21T15:58:20.032Z,1.45
2018-07-21T16:00:49.108Z,1.80
2018-07-21T16:03:18.049Z,1.67
2018-07-21T16:05:47.172Z,1.32
2018-07-21T16:08:16.282Z,1.45
2018-07-21T16:10:45.476Z,1.67
2018-07-21T16:13:14.823Z,1.60
2018-07-21T16:15:43.996Z,2.30
2018-07-21T16:18:13.006Z,1.60
2018-07-21T16:20:42.057Z,1.60
2018-07-21T16:23:10.943Z,1.40
2018-07-21T16:25:39.880Z,1.90
2018-07-21T16:28:08.782Z,1.40
2018-07-21T16:30:37.645Z,1.45
2018-07-21T16:33:06.605Z,1.40
2018-07-21T16:35:35.593Z,1.60
2018-07-21T16:38:04.616Z,1.50
2018-07-21T16:40:33.532Z,1.50
2018-07-21T16:43:02.592Z,1.45
2018-07-21T16:45:31.525Z,1.57
2018-07-21T16:48:00.476Z,1.60
2018-07-21T16:50:29.373Z,1.52
2018-07-21T16:52:58.299Z,1.50
2018-07-21T16:55:27.273Z,1.50
2018-07-21T16:57:56.180Z,1.40
2018-07-21T17:00:25.049Z,1.40
2018-07-21T17:02:53.968Z,1.40
2018-07-21T17:05:22.848Z,1.55
2018-07-21T17:07:51.723Z,1.80
2018-07-21T17:10:20.660Z,1.60
2018-07-21T17:12:49.545Z,1.70
2018-07-21T17:15:18.577Z,1.80
2018-07-21T17:17:47.684Z,1.83
2018-07-21T17:20:16.710Z,1.80
2018-07-21T17:22:45.904Z,2.00
2018-07-21T17:25:14.934Z,1.60
2018-07-21T17:27:44.037Z,1.80
2018-07-21T17:30:13.077Z,1.90
2018-07-21T17:32:42.041Z,1.67
2018-07-21T17:35:10.959Z,1.90
2018-07-21T17:37:39.805Z,1.90
2018-07-21T17:40:08.744Z,1.85
2018-07-21T17:42:37.633Z,1.50
2018-07-21T17:45:06.581Z,1.70
2018-07-21T17:47:35.513Z,1.70
2018-07-21T17:50:04.736Z,1.60
2018-07-21T17:52:33.839Z,1.70
2018-07-21T17:55:02.909Z,1.72
2018-07-21T17:57:31.870Z,1.60
2018-07-21T18:00:00.841Z,1.95
2018-07-21T18:02:29.819Z,2.00
2018-07-21T18:04:58.685Z,1.98
2018-07-21T18:07:27.639Z,2.00
2018-07-21T18:09:56.576Z,2.17
2018-07-21T18:12:25.521Z,2.20
2018-07-21T18:14:54.436Z,2.10
2018-07-21T18:17:23.365Z,2.30
2018-07-21T18:19:52.241Z,2.10
2018-07-21T18:22:21.232Z,2.10
2018-07-21T18:24:50.428Z,2.10
2018-07-21T18:27:19.627Z,1.80
2018-07-21T18:29:48.600Z,2.10
2018-07-21T18:32:17.824Z,2.05
2018-07-21T18:34:46.878Z,2.08
2018-07-21T18:37:15.948Z,1.90
2018-07-21T18:39:45.234Z,2.08
2018-07-21T18:42:14.200Z,2.00
2018-07-21T18:44:43.297Z,1.98
2018-07-21T18:47:12.209Z,2.15
2018-07-21T18:49:41.156Z,1.97
2018-07-21T18:52:10.108Z,1.82
2018-07-21T18:54:39.056Z,2.02
2018-07-21T18:57:07.976Z,2.10
2018-07-21T18:59:36.888Z,1.80
2018-07-21T19:02:05.824Z,2.00
2018-07-21T19:04:34.885Z,1.80
2018-07-21T19:07:03.770Z,1.90
2018-07-21T19:09:32.804Z,1.80
2018-07-21T19:12:06.910Z,1.95
2018-07-21T19:14:35.884Z,2.00
2018-07-21T19:17:04.821Z,2.00
2018-07-21T19:19:39.104Z,1.98
2018-07-21T19:22:07.977Z,1.90
2018-07-21T19:24:36.882Z,2.00
2018-07-21T19:27:10.989Z,1.77
2018-07-21T19:29:39.926Z,1.80
2018-07-21T19:32:14.094Z,2.00
2018-07-21T19:34:43.085Z,2.10
2018-07-21T19:37:17.012Z,1.95
2018-07-21T19:39:46.224Z,1.90
2018-07-21T19:42:15.257Z,1.90
2018-07-21T19:44:44.339Z,1.80
2018-07-21T19:47:13.576Z,1.70
2018-07-21T19:49:42.573Z,1.90
2018-07-21T19:52:11.484Z,1.70
2018-07-21T19:54:40.424Z,1.65
2018-07-21T19:57:09.324Z,1.70
2018-07-21T19:59:38.323Z,1.80
2018-07-21T20:02:07.257Z,2.00
2018-07-21T20:04:36.149Z,2.05
2018-07-21T20:07:05.064Z,1.80
2018-07-21T20:09:33.981Z,1.80
2018-07-21T20:12:02.888Z,1.80
2018-07-21T20:14:31.784Z,1.70
2018-07-21T20:17:00.699Z,1.70
2018-07-21T20:19:29.632Z,1.77
2018-07-21T20:21:58.568Z,1.80
2018-07-21T20:24:27.477Z,1.80
2018-07-21T20:26:56.408Z,1.70
2018-07-21T20:29:25.293Z,1.90
2018-07-21T20:31:54.225Z,1.90
2018-07-21T20:34:23.282Z,1.85
2018-07-21T20:36:52.008Z,1.80
2018-07-21T20:39:20.716Z,1.90
2018-07-21T20:41:49.418Z,1.80
2018-07-21T20:44:18.123Z,2.00
2018-07-21T20:46:46.856Z,1.80
2018-07-21T20:49:15.643Z,2.00
2018-07-21T20:51:44.469Z,2.10
2018-07-21T20:54:13.206Z,1.90
2018-07-21T20:56:41.917Z,1.90
2018-07-21T20:59:10.571Z,2.10
2018-07-21T21:01:39.280Z,2.00
2018-07-21T21:04:08.225Z,2.00
2018-07-21T21:06:37.254Z,1.80
2018-07-21T21:09:08.426Z,2.10
2018-07-21T21:11:37.366Z,2.00
2018-07-21T21:14:06.320Z,1.80
2018-07-21T21:16:35.392Z,2.10
2018-07-21T21:19:04.492Z,1.98
2018-07-21T21:21:33.418Z,2.00
2018-07-21T21:24:02.399Z,2.17
2018-07-21T21:26:31.288Z,2.20
2018-07-21T21:29:00.272Z,2.30
2018-07-21T21:31:29.241Z,2.00
2018-07-21T21:33:58.174Z,2.10
2018-07-21T21:36:27.108Z,2.10
2018-07-21T21:38:56.061Z,2.20
2018-07-21T21:41:24.948Z,2.10
2018-07-21T21:43:53.889Z,2.30
2018-07-21T21:46:22.779Z,2.30
2018-07-21T21:48:51.761Z,2.50
2018-07-21T21:51:20.821Z,2.30
2018-07-21T21:53:49.957Z,2.50
2018-07-21T21:56:18.909Z,2.50
2018-07-21T21:58:48.261Z,2.45
2018-07-21T22:01:17.312Z,2.50
2018-07-21T22:03:46.409Z,2.47
2018-07-21T22:06:15.566Z,2.55
2018-07-21T22:08:44.576Z,2.42
2018-07-21T22:11:13.669Z,2.50
2018-07-21T22:13:42.574Z,2.40
2018-07-21T22:16:11.581Z,2.40
2018-07-21T22:18:40.516Z,2.70
2018-07-21T22:21:09.432Z,2.65
2018-07-21T22:23:38.306Z,2.60
2018-07-21T22:26:07.305Z,2.50
2018-07-21T22:28:36.260Z,2.70
2018-07-21T22:31:05.209Z,2.52
2018-07-21T22:33:34.132Z,2.70
2018-07-21T22:36:03.017Z,2.50
2018-07-21T22:38:31.981Z,2.60
2018-07-21T22:41:00.902Z,2.67
2018-07-21T22:43:29.902Z,2.55
2018-07-21T22:45:58.712Z,2.65
2018-07-21T22:48:27.597Z,2.50
2018-07-21T22:50:56.524Z,2.50
2018-07-21T22:53:25.473Z,2.50
2018-07-21T22:55:54.365Z,2.37
2018-07-21T22:58:23.277Z,2.42
2018-07-21T23:00:52.444Z,2.60
2018-07-21T23:03:21.448Z,2.65
2018-07-21T23:05:50.388Z,2.60
2018-07-21T23:08:19.463Z,2.57
2018-07-21T23:10:48.520Z,2.70
2018-07-21T23:13:17.520Z,2.53
2018-07-21T23:15:46.611Z,3.00
2018-07-21T23:18:15.741Z,2.60
2018-07-21T23:20:44.891Z,3.10
2018-07-21T23:23:13.977Z,2.47
2018-07-21T23:25:42.996Z,2.77
2018-07-21T23:28:11.908Z,2.90
2018-07-21T23:30:40.842Z,2.67
2018-07-21T23:33:09.749Z,2.72
2018-07-21T23:35:38.668Z,2.77
2018-07-21T23:38:07.542Z,2.75
2018-07-21T23:40:36.480Z,2.70
2018-07-21T23:43:05.396Z,2.83
2018-07-21T23:45:34.300Z,2.62
2018-07-21T23:48:03.202Z,2.50
2018-07-21T23:50:32.114Z,2.70
2018-07-21T23:53:01.016Z,2.72
2018-07-21T23:55:29.929Z,2.75
2018-07-21T23:57:58.815Z,2.90
